Weather History for Warsaw, IN

Change the Weather History Date:

Friday, November 18, 2011

  Actual Average Record
Temperature  
Mean Temperature 34 °F -  
Max Temperature 44 °F 50 °F 73 °F (1952)
Min Temperature 24 °F 32 °F 6 °F (1959)
Degree Days  
Heating Degree Days 31    
Moisture  
Dew Point 15 °F    
Average Humidity 46    
Maximum Humidity 74    
Minimum Humidity 27    
Precipitation  
Precipitation 0.00 in - - ()
Sea Level Pressure  
Sea Level Pressure 30.16 in    
Wind  
Wind Speed 7 mph (SSW)    
Max Wind Speed 16 mph    
Max Gust Speed 26 mph    
Visibility 10 miles    
Events      
Averages and records for this station are not official NWS values.
T = Trace of Precipitation, MM = Missing Value Source: NWS Daily Summary

Daily Weather History Graph

Daily Weather History Graph

Search for Another Location

Airport:

Trip Planner

Search our weather history database for the weather conditions in past years. The results will help you decide how hot, cold, wet, or windy it might be!

Date:

Astronomy

Nov. 18, 2011 Rise Set
Actual Time 7:34 AM EST 5:21 PM EST
Civil Twilight 7:04 AM EST 5:51 PM EST
Nautical Twilight 6:31 AM EST 6:25 PM EST
Astronomical Twilight 5:58 AM EST 6:57 PM EST
Moon No Moon Rise 1:11 PM EST (11/18)
Length of Visible Light 10h 46m
Length of Day
9h 47m
Waning Gibbous, 49% of the Moon is Illuminated
Nov 18
Waning Gibbous
Nov 25
New
Dec 2
First Quarter
Dec 10
Full
Dec 17
Last Quarter

Hourly Weather History & Observations

Time (EST) Temp. Windchill Dew Point Humidity Pressure Visibility Wind Dir Wind Speed Gust Speed Precip Events Conditions
12:15 AM 26.6 °F 22.6 °F 17.6 °F 69% 30.26 in 10.0 mi SSW 3.5 mph - N/A   Clear
12:35 AM 26.6 °F 22.6 °F 17.6 °F 69% 30.26 in 10.0 mi South 3.5 mph - N/A   Clear
12:55 AM 26.6 °F 22.6 °F 15.8 °F 64% 30.26 in 10.0 mi South 3.5 mph - N/A   Clear
1:15 AM 24.8 °F - 15.8 °F 69% 30.26 in 10.0 mi Calm Calm - N/A   Clear
1:35 AM 24.8 °F - 17.6 °F 74% 30.26 in 10.0 mi Calm Calm - N/A   Clear
1:55 AM 24.8 °F - 17.6 °F 74% 30.26 in 10.0 mi Calm Calm - N/A   Clear
2:15 AM 24.8 °F - 17.6 °F 74% 30.26 in 10.0 mi Calm Calm - N/A   Clear
2:35 AM 26.6 °F 22.6 °F 17.6 °F 69% 30.26 in 10.0 mi SSW 3.5 mph - N/A   Clear
2:55 AM 26.6 °F 22.6 °F 17.6 °F 69% 30.27 in 10.0 mi South 3.5 mph - N/A   Clear
3:15 AM 26.6 °F 21.2 °F 17.6 °F 69% 30.27 in 10.0 mi South 4.6 mph - N/A   Clear
3:35 AM 26.6 °F 22.6 °F 17.6 °F 69% 30.27 in 10.0 mi South 3.5 mph - N/A   Clear
3:55 AM 26.6 °F 22.6 °F 17.6 °F 69% 30.27 in 10.0 mi SSW 3.5 mph - N/A   Clear
4:15 AM 26.6 °F 21.2 °F 15.8 °F 64% 30.27 in 10.0 mi SSW 4.6 mph - N/A   Clear
4:35 AM 26.6 °F 22.6 °F 15.8 °F 64% 30.27 in 10.0 mi South 3.5 mph - N/A   Clear
4:55 AM 26.6 °F 22.6 °F 15.8 °F 64% 30.27 in 10.0 mi South 3.5 mph - N/A   Clear
5:15 AM 26.6 °F 21.2 °F 15.8 °F 64% 30.27 in 10.0 mi South 4.6 mph - N/A   Clear
5:35 AM 28.4 °F 23.3 °F 15.8 °F 59% 30.27 in 10.0 mi SSW 4.6 mph - N/A   Clear
5:55 AM 28.4 °F 22.2 °F 15.8 °F 59% 30.27 in 10.0 mi SSW 5.8 mph - N/A   Clear
6:35 AM 28.4 °F 22.2 °F 15.8 °F 59% 30.26 in 10.0 mi South 5.8 mph - N/A   Clear
6:55 AM 28.4 °F 22.2 °F 15.8 °F 59% 30.26 in 10.0 mi SSW 5.8 mph - N/A   Clear
7:35 AM 28.4 °F 20.4 °F 15.8 °F 59% 30.27 in 10.0 mi South 8.1 mph - N/A   Clear
7:55 AM 28.4 °F 22.2 °F 15.8 °F 59% 30.27 in 10.0 mi SSW 5.8 mph - N/A   Clear
8:15 AM 30.2 °F 23.4 °F 15.8 °F 55% 30.26 in 10.0 mi SSW 6.9 mph - N/A   Clear
8:35 AM 32.0 °F 23.6 °F 14.0 °F 48% 30.26 in 10.0 mi SSW 10.4 mph 16.1 mph N/A   Clear
8:55 AM 32.0 °F 23.6 °F 14.0 °F 48% 30.26 in 10.0 mi SSW 10.4 mph 17.3 mph N/A   Clear
9:15 AM 33.8 °F 26.4 °F 14.0 °F 44% 30.26 in 10.0 mi SSW 9.2 mph 18.4 mph N/A   Clear
9:35 AM 33.8 °F 25.3 °F 14.0 °F 44% 30.26 in 10.0 mi SSW 11.5 mph 17.3 mph N/A   Clear
9:55 AM 33.8 °F 24.8 °F 14.0 °F 44% 30.25 in 10.0 mi SSW 12.7 mph 20.7 mph N/A   Clear
10:35 AM 37.4 °F 30.8 °F 14.0 °F 38% 30.24 in 10.0 mi SW 9.2 mph 18.4 mph N/A   Clear
10:55 AM 39.2 °F 30.5 °F 12.2 °F 33% 30.24 in 10.0 mi SSW 16.1 mph 19.6 mph N/A   Clear
11:15 AM 41.0 °F 33.5 °F 12.2 °F 31% 30.23 in 10.0 mi SSW 13.8 mph 24.2 mph N/A   Clear
11:55 AM 41.0 °F 33.5 °F 12.2 °F 31% 30.20 in 10.0 mi SSW 13.8 mph 21.9 mph N/A   Clear
12:35 PM 42.8 °F 35.1 °F 12.2 °F 29% 30.18 in 10.0 mi SSW 16.1 mph 24.2 mph N/A   Clear
12:55 PM 42.8 °F 37.5 °F 12.2 °F 29% 30.17 in 10.0 mi SSW 9.2 mph 19.6 mph N/A   Clear
1:15 PM 44.6 °F 37.8 °F 12.2 °F 27% 30.15 in 10.0 mi SSW 15.0 mph 23.0 mph N/A   Clear
1:35 PM 44.6 °F 37.4 °F 12.2 °F 27% 30.14 in 10.0 mi SSW 16.1 mph 25.3 mph N/A   Clear
1:55 PM 44.6 °F 39.2 °F 12.2 °F 27% 30.12 in 10.0 mi SSW 10.4 mph 19.6 mph N/A   Clear
2:35 PM 44.6 °F 38.8 °F 12.2 °F 27% 30.10 in 10.0 mi South 11.5 mph 20.7 mph N/A   Clear
2:55 PM 44.6 °F 40.2 °F 12.2 °F 27% 30.09 in 10.0 mi South 8.1 mph 20.7 mph N/A   Clear
3:15 PM 44.6 °F 38.4 °F 12.2 °F 27% 30.07 in 10.0 mi South 12.7 mph 24.2 mph N/A   Scattered Clouds
3:35 PM 44.6 °F 38.4 °F 12.2 °F 27% 30.07 in 10.0 mi South 12.7 mph 19.6 mph N/A   Mostly Cloudy
4:15 PM 44.6 °F 39.7 °F 12.2 °F 27% 30.05 in 10.0 mi South 9.2 mph 19.6 mph N/A   Clear
4:35 PM 44.6 °F 38.8 °F 12.2 °F 27% 30.05 in 10.0 mi South 11.5 mph 23.0 mph N/A   Mostly Cloudy
4:55 PM 42.8 °F 38.0 °F 15.8 °F 34% 30.05 in 10.0 mi South 8.1 mph - N/A   Scattered Clouds
5:15 PM 42.8 °F 37.0 °F 17.6 °F 36% 30.05 in 10.0 mi South 10.4 mph 16.1 mph N/A   Mostly Cloudy
5:35 PM 42.8 °F 36.6 °F 15.8 °F 34% 30.04 in 10.0 mi South 11.5 mph 19.6 mph N/A   Overcast
6:15 PM 41.0 °F 34.3 °F 17.6 °F 39% 30.03 in 10.0 mi South 11.5 mph 18.4 mph N/A   Overcast
6:55 PM 41.0 °F 34.3 °F 15.8 °F 36% 30.02 in 10.0 mi South 11.5 mph 20.7 mph N/A   Overcast
7:15 PM 41.0 °F 34.3 °F 15.8 °F 36% 30.01 in 10.0 mi South 11.5 mph 25.3 mph N/A   Scattered Clouds
7:35 PM 41.0 °F 33.5 °F 15.8 °F 36% 30.01 in 10.0 mi South 13.8 mph 26.5 mph N/A   Scattered Clouds
7:55 PM 41.0 °F 33.1 °F 15.8 °F 36% 30.01 in 10.0 mi South 15.0 mph 23.0 mph N/A   Mostly Cloudy
8:15 PM 41.0 °F 34.7 °F 15.8 °F 36% 30.01 in 10.0 mi South 10.4 mph 18.4 mph N/A   Scattered Clouds
8:55 PM 39.2 °F 33.0 °F 17.6 °F 42% 30.00 in 10.0 mi South 9.2 mph 17.3 mph N/A   Scattered Clouds
9:15 PM 41.0 °F 34.3 °F 17.6 °F 39% 30.00 in 10.0 mi South 11.5 mph 17.3 mph N/A   Scattered Clouds
9:55 PM 41.0 °F 33.1 °F 15.8 °F 36% 30.00 in 10.0 mi South 15.0 mph 21.9 mph N/A   Overcast
10:15 PM 41.0 °F 33.9 °F 15.8 °F 36% 30.01 in 10.0 mi SSW 12.7 mph 20.7 mph N/A   Mostly Cloudy
10:35 PM 41.0 °F 34.3 °F 15.8 °F 36% 30.01 in 10.0 mi South 11.5 mph 20.7 mph N/A   Overcast
10:55 PM 41.0 °F 36.4 °F 15.8 °F 36% 30.01 in 10.0 mi SSW 6.9 mph 18.4 mph N/A   Overcast
11:15 PM 41.0 °F 35.8 °F 15.8 °F 36% 30.01 in 10.0 mi SSW 8.1 mph 17.3 mph N/A   Mostly Cloudy
11:35 PM 41.0 °F 35.2 °F 17.6 °F 39% 30.01 in 10.0 mi SSW 9.2 mph 18.4 mph N/A   Mostly Cloudy
11:55 PM 41.0 °F 35.2 °F 17.6 °F 39% 30.01 in 10.0 mi South 9.2 mph 16.1 mph N/A   Scattered Clouds